createdAt,value
2018-12-14T00:00:31.551Z,11.13
2018-12-14T00:05:49.037Z,10.77
2018-12-14T00:11:06.510Z,11.63
2018-12-14T00:16:23.974Z,11.33
2018-12-14T00:21:41.440Z,11.57
2018-12-14T00:26:59.197Z,11.87
2018-12-14T00:32:16.749Z,10.80
2018-12-14T00:37:34.231Z,11.07
2018-12-14T00:42:51.709Z,11.07
2018-12-14T00:48:09.181Z,13.60
2018-12-14T00:53:26.676Z,12.70
2018-12-14T00:58:44.547Z,13.37
2018-12-14T01:04:02.147Z,14.30
2018-12-14T01:09:19.612Z,13.00
2018-12-14T01:14:37.076Z,14.00
2018-12-14T01:19:54.576Z,13.87
2018-12-14T01:25:12.046Z,14.07
2018-12-14T01:30:29.645Z,13.00
2018-12-14T01:35:47.136Z,13.27
2018-12-14T01:41:04.609Z,14.43
2018-12-14T01:46:22.090Z,14.70
2018-12-14T01:51:39.556Z,15.60
2018-12-14T01:56:57.024Z,14.40
2018-12-14T02:02:14.603Z,13.37
2018-12-14T02:07:32.076Z,13.47
2018-12-14T02:12:49.658Z,15.13
2018-12-14T02:18:07.563Z,14.00
2018-12-14T02:23:25.123Z,15.00
2018-12-14T02:28:42.595Z,14.90
2018-12-14T02:34:00.085Z,13.87
2018-12-14T02:39:17.570Z,15.40
2018-12-14T02:44:35.045Z,13.23
2018-12-14T02:49:52.509Z,13.17
2018-12-14T02:55:10.007Z,14.50
2018-12-14T03:00:27.575Z,11.83
2018-12-14T03:05:45.061Z,12.73
2018-12-14T03:11:02.525Z,13.50
2018-12-14T03:16:20.015Z,11.20
2018-12-14T03:21:37.488Z,13.13
2018-12-14T03:26:54.957Z,12.57
2018-12-14T03:32:12.440Z,12.63
2018-12-14T03:37:29.917Z,12.65
2018-12-14T03:42:47.394Z,11.40
2018-12-14T03:48:04.853Z,11.95
2018-12-14T03:53:23.216Z,11.73
2018-12-14T03:58:40.677Z,11.57
2018-12-14T04:03:58.152Z,11.73
2018-12-14T04:09:15.614Z,12.00
2018-12-14T04:14:33.078Z,11.33
2018-12-14T04:19:50.548Z,12.17
2018-12-14T04:25:08.042Z,11.50
2018-12-14T04:30:25.663Z,10.83
2018-12-14T04:35:43.213Z,12.20
2018-12-14T04:41:00.692Z,11.33
2018-12-14T04:46:18.170Z,12.60
2018-12-14T04:51:35.645Z,11.60
2018-12-14T04:56:53.118Z,12.47
2018-12-14T05:02:10.584Z,11.33
2018-12-14T05:07:28.046Z,11.78
2018-12-14T05:12:45.517Z,12.17
2018-12-14T05:18:02.988Z,12.55
2018-12-14T05:23:20.457Z,11.77
2018-12-14T05:28:37.932Z,12.33
2018-12-14T05:33:55.401Z,12.10
2018-12-14T05:39:13.107Z,11.87
2018-12-14T05:44:30.593Z,11.60
2018-12-14T05:49:48.073Z,11.67
2018-12-14T05:55:05.643Z,11.37
2018-12-14T06:00:23.118Z,11.10
2018-12-14T06:05:41.139Z,12.10
2018-12-14T06:10:58.782Z,12.70
2018-12-14T06:16:16.249Z,12.73
2018-12-14T06:21:33.712Z,12.93
2018-12-14T06:26:51.174Z,13.27
2018-12-14T06:32:08.644Z,12.87
2018-12-14T06:37:26.400Z,12.80
2018-12-14T06:42:43.869Z,12.20
2018-12-14T06:48:01.328Z,12.30
2018-12-14T06:53:18.892Z,12.63
2018-12-14T06:58:36.353Z,11.50
2018-12-14T07:03:53.822Z,12.30
2018-12-14T07:09:11.282Z,12.53
2018-12-14T07:14:28.740Z,12.73
2018-12-14T07:19:46.206Z,14.77
2018-12-14T07:25:04.568Z,12.80
2018-12-14T07:30:22.129Z,14.00
2018-12-14T07:35:42.099Z,13.63
2018-12-14T07:40:59.198Z,14.30
2018-12-14T07:46:17.048Z,13.33
2018-12-14T07:51:34.526Z,14.27
2018-12-14T07:56:52.012Z,14.10
2018-12-14T08:02:09.589Z,13.47
2018-12-14T08:07:27.058Z,13.33
2018-12-14T08:12:44.527Z,13.57
2018-12-14T08:18:01.984Z,13.50
2018-12-14T08:23:19.458Z,12.77
2018-12-14T08:28:36.918Z,15.00
2018-12-14T08:33:54.403Z,16.70
2018-12-14T08:39:11.871Z,13.93
2018-12-14T08:44:29.333Z,13.70
2018-12-14T08:49:46.825Z,14.40
2018-12-14T08:55:05.092Z,13.95
2018-12-14T09:00:22.559Z,13.05
2018-12-14T09:05:40.028Z,14.33
2018-12-14T09:10:57.501Z,13.40
2018-12-14T09:16:15.077Z,13.23
2018-12-14T09:21:32.577Z,12.57
2018-12-14T09:26:50.039Z,13.20
2018-12-14T09:32:07.515Z,13.17
2018-12-14T09:37:24.973Z,12.90
2018-12-14T09:42:42.436Z,12.10
2018-12-14T09:47:59.947Z,11.35
2018-12-14T09:53:17.414Z,11.87
2018-12-14T09:58:34.868Z,12.07
2018-12-14T10:03:52.622Z,12.20
2018-12-14T10:09:10.086Z,12.13
2018-12-14T10:14:27.571Z,11.27
2018-12-14T10:19:45.041Z,12.10
2018-12-14T10:25:02.589Z,11.33
2018-12-14T10:30:20.062Z,11.88
2018-12-14T10:35:37.538Z,11.57
2018-12-14T10:40:55.013Z,11.83
2018-12-14T10:46:12.504Z,11.47
2018-12-14T10:51:30.272Z,11.35
2018-12-14T10:56:47.738Z,11.73
2018-12-14T11:02:05.304Z,10.47
2018-12-14T11:07:22.773Z,10.83
2018-12-14T11:12:40.334Z,11.53
2018-12-14T11:17:58.724Z,10.47
2018-12-14T11:23:16.288Z,9.90
2018-12-14T11:28:33.777Z,11.13
2018-12-14T11:33:51.257Z,10.38
2018-12-14T11:39:08.719Z,11.13
2018-12-14T11:44:26.181Z,9.90
2018-12-14T11:49:43.646Z,10.27
2018-12-14T11:55:01.118Z,10.33
2018-12-14T12:00:18.626Z,9.93
2018-12-14T12:05:36.290Z,10.70
2018-12-14T12:10:53.754Z,10.30
2018-12-14T12:16:11.219Z,9.67
2018-12-14T12:21:28.992Z,10.60
2018-12-14T12:26:46.470Z,9.47
2018-12-14T12:32:04.017Z,10.07
2018-12-14T12:37:21.483Z,9.57
2018-12-14T12:42:38.956Z,10.37
2018-12-14T12:47:56.421Z,10.43
2018-12-14T12:53:15.897Z,10.40
2018-12-14T12:58:33.373Z,10.20
2018-12-14T13:03:50.841Z,10.87
2018-12-14T13:09:08.480Z,10.70
2018-12-14T13:14:26.011Z,11.00
2018-12-14T13:19:43.472Z,10.43
2018-12-14T13:25:00.940Z,9.20
2018-12-14T13:30:18.424Z,9.65
2018-12-14T13:35:35.889Z,10.50
2018-12-14T13:40:53.796Z,10.70
2018-12-14T13:46:11.307Z,11.33
2018-12-14T13:51:28.771Z,11.83
2018-12-14T13:56:46.242Z,9.67
2018-12-14T14:02:03.712Z,11.47
2018-12-14T14:07:21.177Z,10.93
2018-12-14T14:12:38.640Z,11.57
2018-12-14T14:17:56.112Z,10.77
2018-12-14T14:23:13.586Z,10.93
2018-12-14T14:28:31.058Z,10.70
2018-12-14T14:33:48.536Z,10.93
2018-12-14T14:39:06.902Z,11.47
2018-12-14T14:44:24.401Z,11.03
2018-12-14T14:49:41.884Z,10.93
2018-12-14T14:54:59.520Z,11.73
2018-12-14T15:00:16.980Z,10.90
2018-12-14T15:05:34.454Z,11.93
2018-12-14T15:10:51.943Z,12.17
2018-12-14T15:16:09.430Z,15.43
2018-12-14T15:21:27.018Z,12.97
2018-12-14T15:26:44.557Z,10.37
2018-12-14T15:32:02.467Z,12.07
2018-12-14T15:37:19.920Z,11.57
2018-12-14T15:42:37.388Z,10.90
2018-12-14T15:47:54.865Z,11.83
2018-12-14T15:53:12.334Z,11.20
2018-12-14T15:58:29.793Z,10.90
2018-12-14T16:03:47.249Z,12.03
2018-12-14T16:09:05.795Z,11.27
2018-12-14T16:14:23.287Z,11.23
2018-12-14T16:19:40.754Z,11.88
2018-12-14T16:24:58.235Z,11.53
2018-12-14T16:30:15.706Z,11.53
2018-12-14T16:35:33.176Z,12.77
2018-12-14T16:40:50.636Z,14.77
2018-12-14T16:46:08.111Z,13.50
2018-12-14T16:51:25.672Z,14.50
2018-12-14T16:56:43.134Z,12.07
2018-12-14T17:02:00.704Z,11.23
2018-12-14T17:07:18.173Z,13.77
2018-12-14T17:12:35.644Z,18.43
2018-12-14T17:17:53.217Z,16.07
2018-12-14T17:23:10.686Z,13.83
2018-12-14T17:28:28.152Z,12.30
2018-12-14T17:33:45.636Z,11.73
2018-12-14T17:39:04.587Z,11.93
2018-12-14T17:44:22.052Z,12.65
2018-12-14T17:49:39.526Z,11.93
2018-12-14T17:54:56.999Z,12.10
2018-12-14T18:00:14.467Z,13.30
2018-12-14T18:05:31.945Z,12.20
2018-12-14T18:10:49.408Z,12.50
2018-12-14T18:16:07.274Z,11.00
2018-12-14T18:21:24.743Z,12.47
2018-12-14T18:26:42.338Z,11.87
2018-12-14T18:31:59.804Z,12.10
2018-12-14T18:37:17.353Z,11.57
2018-12-14T18:42:34.839Z,11.97
2018-12-14T18:47:52.354Z,12.33
2018-12-14T18:53:09.812Z,12.50
2018-12-14T18:58:27.282Z,11.93
2018-12-14T19:03:44.854Z,12.23
2018-12-14T19:09:02.713Z,10.13
2018-12-14T19:14:20.191Z,12.47
2018-12-14T19:19:37.730Z,9.90
2018-12-14T19:24:55.239Z,9.88
2018-12-14T19:30:12.713Z,8.90
2018-12-14T19:35:30.272Z,8.20
2018-12-14T19:40:47.731Z,7.43
2018-12-14T19:46:06.496Z,6.67
2018-12-14T19:51:24.271Z,6.93
2018-12-14T19:56:42.324Z,7.57
2018-12-14T20:01:59.793Z,6.87
2018-12-14T20:07:17.253Z,7.30
2018-12-14T20:12:34.790Z,7.63
2018-12-14T20:17:52.306Z,7.83
2018-12-14T20:23:09.765Z,7.30
2018-12-14T20:28:27.230Z,7.10
2018-12-14T20:33:44.684Z,7.47
2018-12-14T20:39:02.193Z,7.00
2018-12-14T20:44:19.668Z,7.07
2018-12-14T20:49:37.130Z,7.73
2018-12-14T20:54:55.111Z,7.10
2018-12-14T21:00:12.749Z,7.05
2018-12-14T21:05:30.231Z,6.70
2018-12-14T21:10:47.697Z,7.60
2018-12-14T21:16:05.166Z,7.07
2018-12-14T21:21:22.647Z,7.63
2018-12-14T21:26:40.105Z,7.17
2018-12-14T21:31:57.579Z,7.70
2018-12-14T21:37:15.041Z,6.73
2018-12-14T21:42:32.515Z,6.93
2018-12-14T21:47:49.979Z,6.47
2018-12-14T21:53:07.468Z,6.40
2018-12-14T21:58:24.969Z,6.47
2018-12-14T22:03:42.449Z,7.20
2018-12-14T22:08:59.901Z,7.33
2018-12-14T22:14:17.373Z,6.67
2018-12-14T22:19:34.852Z,7.37
2018-12-14T22:24:52.329Z,7.60
2018-12-14T22:30:09.977Z,5.90
2018-12-14T22:35:27.468Z,7.70
2018-12-14T22:40:44.928Z,7.93
2018-12-14T22:46:02.390Z,7.10
2018-12-14T22:51:19.845Z,6.33
2018-12-14T22:56:37.306Z,7.90
2018-12-14T23:01:54.821Z,6.63
2018-12-14T23:07:12.286Z,7.20
2018-12-14T23:12:29.748Z,6.50
2018-12-14T23:17:47.218Z,6.70
2018-12-14T23:23:04.676Z,7.47
2018-12-14T23:28:22.142Z,6.80
2018-12-14T23:33:39.605Z,6.07
2018-12-14T23:38:57.069Z,6.70
2018-12-14T23:44:14.530Z,6.13
2018-12-14T23:49:31.997Z,5.87
2018-12-14T23:54:49.469Z,5.83
